Time;durP1;ratioP1;P1;durP2;ratioP2;P2;SDS_P1;SDS_P2;PMS_P1;PMS_P2;Temp;Humidity;BMP_temperature;BMP_pressure;BME280_temperature;BME280_humidity;BME280_pressure;Samples;Min_cycle;Max_cycle;Signal;HPM_P1;HPM_P2
2023/07/11 00:01:44;;;;;;;5.68;2.20;;;17.40;99.90;;;;;;6118858;23;20102;-90
2023/07/11 00:04:10;;;;;;;3.05;2.50;;;17.30;99.90;;;;;;6118428;23;20002;-89
2023/07/11 00:06:35;;;;;;;3.95;2.55;;;17.30;99.90;;;;;;6119326;23;20459;-91
2023/07/11 00:09:01;;;;;;;3.65;2.50;;;17.30;99.90;;;;;;6118150;23;20503;-89
2023/07/11 00:11:26;;;;;;;5.45;2.17;;;17.30;99.90;;;;;;6118637;23;20006;-90
2023/07/11 00:13:53;;;;;;;3.17;1.98;;;17.20;99.90;;;;;;6117457;23;20101;-87
2023/07/11 00:16:19;;;;;;;6.45;2.10;;;17.20;99.90;;;;;;6118679;23;20053;-89
2023/07/11 00:18:45;;;;;;;4.70;2.65;;;17.20;99.90;;;;;;6119144;23;20310;-90
2023/07/11 00:21:11;;;;;;;2.83;2.13;;;17.20;99.90;;;;;;6117809;23;20025;-89
2023/07/11 00:23:36;;;;;;;6.80;2.65;;;17.20;99.90;;;;;;6118919;23;20002;-91
2023/07/11 00:26:03;;;;;;;6.05;2.30;;;17.10;99.90;;;;;;6118079;23;20002;-89
2023/07/11 00:28:28;;;;;;;4.47;2.20;;;17.10;99.90;;;;;;6117324;23;20101;-90
2023/07/11 00:30:54;;;;;;;7.97;2.33;;;17.10;99.90;;;;;;6119467;23;20436;-87
2023/07/11 00:33:19;;;;;;;4.10;2.50;;;17.10;99.90;;;;;;6119690;23;20008;-91
2023/07/11 00:35:52;;;;;;;7.43;2.30;;;17.00;99.90;;;;;;6119833;23;20017;-90
2023/07/11 00:38:18;;;;;;;5.68;2.20;;;17.00;99.90;;;;;;6118018;23;20417;-90
2023/07/11 00:40:46;;;;;;;2.97;2.05;;;17.00;99.90;;;;;;6118763;23;20076;-90
2023/07/11 00:43:14;;;;;;;4.78;3.00;;;17.00;99.90;;;;;;6119168;23;19998;-91
2023/07/11 00:45:49;;;;;;;3.92;2.33;;;17.00;99.90;;;;;;6119289;23;20002;-89
2023/07/11 00:48:16;;;;;;;3.92;2.28;;;16.90;99.90;;;;;;6118488;23;20024;-90
2023/07/11 00:50:42;;;;;;;2.97;2.13;;;16.90;99.90;;;;;;6119318;23;20476;-91
2023/07/11 00:53:09;;;;;;;3.88;2.10;;;16.90;99.90;;;;;;6119846;23;20410;-90
2023/07/11 00:55:34;;;;;;;4.43;2.30;;;16.90;99.90;;;;;;6119536;23;20392;-91
2023/07/11 00:58:01;;;;;;;3.70;2.40;;;16.80;99.90;;;;;;6117334;23;19998;-91
2023/07/11 01:00:27;;;;;;;2.88;1.95;;;16.80;99.90;;;;;;6120097;23;20131;-90
2023/07/11 01:02:52;;;;;;;4.20;2.30;;;16.90;99.90;;;;;;6119852;23;19998;-90
2023/07/11 01:05:18;;;;;;;4.65;2.47;;;16.80;99.90;;;;;;6119493;23;20061;-91
2023/07/11 01:07:44;;;;;;;4.10;2.22;;;16.80;99.90;;;;;;6118717;23;20443;-91
2023/07/11 01:10:10;;;;;;;6.72;2.35;;;16.80;99.90;;;;;;6119434;23;20033;-90
2023/07/11 01:12:42;;;;;;;5.07;2.55;;;16.80;99.90;;;;;;6119365;23;19998;-86
2023/07/11 01:15:08;;;;;;;3.53;1.92;;;16.70;99.90;;;;;;6119600;23;20024;-90
2023/07/11 01:17:35;;;;;;;3.92;2.17;;;16.80;99.90;;;;;;6119227;23;20029;-91
2023/07/11 01:20:07;;;;;;;4.68;2.63;;;16.80;99.90;;;;;;6119083;23;20006;-91
2023/07/11 01:22:35;;;;;;;4.15;2.65;;;16.80;99.90;;;;;;6119273;23;20002;-89
2023/07/11 01:25:10;;;;;;;4.25;1.90;;;16.80;99.90;;;;;;6118864;23;20006;-91
2023/07/11 01:27:37;;;;;;;;;;;16.80;99.90;;;;;;6118752;23;20002;-90
2023/07/11 01:30:06;;;;;;;6.68;3.17;;;16.70;99.90;;;;;;6117797;23;19907;-88
2023/07/11 01:32:31;;;;;;;4.57;2.22;;;16.70;99.90;;;;;;6119155;23;20025;-90
2023/07/11 01:34:57;;;;;;;5.60;2.50;;;16.60;99.90;;;;;;6119020;23;20049;-90
2023/07/11 01:37:23;;;;;;;3.58;1.98;;;16.50;99.90;;;;;;6120088;23;20002;-90
2023/07/11 01:39:49;;;;;;;8.73;2.20;;;16.50;99.90;;;;;;6119442;23;20336;-90
2023/07/11 01:42:14;;;;;;;4.85;2.40;;;16.50;99.90;;;;;;6119067;23;20029;-91
2023/07/11 01:44:40;;;;;;;3.80;2.40;;;16.50;99.90;;;;;;6118220;23;20049;-90
2023/07/11 01:47:07;;;;;;;2.17;1.98;;;16.50;99.90;;;;;;6119392;23;20416;-90
2023/07/11 01:49:33;;;;;;;2.10;1.88;;;16.50;99.90;;;;;;6119453;23;20045;-91
2023/07/11 01:52:22;;;;;;;4.43;2.22;;;16.60;99.90;;;;;;6119020;23;20117;-91
2023/07/11 01:54:49;;;;;;;6.55;2.47;;;16.50;99.90;;;;;;6104449;23;20104;-90
2023/07/11 01:57:14;;;;;;;4.10;2.55;;;16.50;99.90;;;;;;6119067;23;20013;-90
2023/07/11 01:59:41;;;;;;;3.05;2.10;;;16.50;99.90;;;;;;6119588;23;20006;-90
2023/07/11 02:02:08;;;;;;;4.30;2.47;;;16.40;99.90;;;;;;6119004;23;20009;-90
2023/07/11 02:04:35;;;;;;;2.67;2.20;;;16.40;99.90;;;;;;6119080;23;20017;-91
2023/07/11 02:07:02;;;;;;;5.32;2.45;;;16.40;99.90;;;;;;6119192;23;20261;-90
2023/07/11 02:09:29;;;;;;;4.68;2.00;;;16.40;99.90;;;;;;6119223;23;20038;-90
2023/07/11 02:11:55;;;;;;;3.83;1.70;;;16.50;99.90;;;;;;6118669;23;20025;-91
2023/07/11 02:14:21;;;;;;;3.70;2.17;;;16.50;99.90;;;;;;6117894;23;20014;-91
2023/07/11 02:16:47;;;;;;;3.13;2.20;;;16.50;99.90;;;;;;6119291;23;20002;-91
2023/07/11 02:19:16;;;;;;;4.97;2.15;;;16.40;99.90;;;;;;6118365;23;20008;-90
2023/07/11 02:21:42;;;;;;;3.90;2.10;;;16.40;99.90;;;;;;6118074;23;20002;-90
2023/07/11 02:24:10;;;;;;;6.50;2.20;;;16.40;99.90;;;;;;6119022;23;20416;-88
2023/07/11 02:26:38;;;;;;;4.78;2.40;;;16.30;99.90;;;;;;6117703;23;20009;-89
2023/07/11 02:29:04;;;;;;;10.55;2.40;;;16.30;99.90;;;;;;6118865;23;20433;-91
2023/07/11 02:31:32;;;;;;;7.88;2.60;;;16.20;99.90;;;;;;6118764;23;20029;-90
2023/07/11 02:33:58;;;;;;;8.52;3.15;;;16.20;99.90;;;;;;6118252;23;20010;-91
2023/07/11 02:36:23;;;;;;;4.72;2.05;;;16.10;99.90;;;;;;6118362;23;20005;-89
2023/07/11 02:38:49;;;;;;;5.85;2.55;;;16.10;99.90;;;;;;6120101;23;20002;-87
2023/07/11 02:41:14;;;;;;;6.78;2.60;;;16.10;99.90;;;;;;6120541;23;20028;-91
2023/07/11 02:43:40;;;;;;;4.35;2.13;;;16.10;99.90;;;;;;6120892;23;20358;-90
2023/07/11 02:46:06;;;;;;;2.97;1.95;;;16.10;99.90;;;;;;6121105;23;20009;-91
2023/07/11 02:48:31;;;;;;;5.93;2.65;;;16.10;99.90;;;;;;6118561;23;20097;-88
2023/07/11 02:50:57;;;;;;;4.80;2.50;;;16.10;99.90;;;;;;6120606;23;20029;-91
2023/07/11 02:53:22;;;;;;;4.15;2.00;;;16.10;99.90;;;;;;6121640;23;20002;-89
2023/07/11 02:55:51;;;;;;;7.32;2.75;;;16.00;99.90;;;;;;6120173;23;20017;-90
2023/07/11 02:58:17;;;;;;;10.20;2.90;;;16.00;99.90;;;;;;6120083;23;20093;-89
2023/07/11 03:00:50;;;;;;;7.25;2.83;;;16.00;99.90;;;;;;6119703;23;20021;-88
2023/07/11 03:03:17;;;;;;;7.88;2.88;;;16.00;99.90;;;;;;6120861;23;20028;-90
2023/07/11 03:05:43;;;;;;;4.22;2.85;;;15.90;99.90;;;;;;6119907;23;20012;-89
2023/07/11 03:08:09;;;;;;;4.05;2.25;;;15.90;99.90;;;;;;6121589;23;20080;-90
2023/07/11 03:10:34;;;;;;;5.43;2.22;;;15.90;99.90;;;;;;6120896;23;20444;-92
2023/07/11 03:13:00;;;;;;;7.03;3.05;;;15.90;99.90;;;;;;6119187;23;20416;-91
2023/07/11 03:15:26;;;;;;;4.22;2.00;;;15.90;99.90;;;;;;6120062;23;20022;-89
2023/07/11 03:17:51;;;;;;;6.95;2.50;;;15.90;99.90;;;;;;6120899;23;20005;-91
2023/07/11 03:20:17;;;;;;;3.72;2.00;;;15.90;99.90;;;;;;6120079;23;20009;-91
2023/07/11 03:22:42;;;;;;;3.95;2.28;;;15.90;99.90;;;;;;6120891;23;20349;-90
2023/07/11 03:25:08;;;;;;;2.55;2.35;;;15.90;99.90;;;;;;6118884;23;20028;-88
2023/07/11 03:27:34;;;;;;;3.55;2.25;;;15.90;99.90;;;;;;6120384;23;20006;-90
2023/07/11 03:29:59;;;;;;;8.93;2.40;;;15.90;99.90;;;;;;6119933;23;20077;-91
2023/07/11 03:32:25;;;;;;;5.00;2.67;;;15.90;99.90;;;;;;6120307;23;20017;-90
2023/07/11 03:35:12;;;;;;;3.55;2.10;;;15.90;99.90;;;;;;6119781;23;20103;-88
2023/07/11 03:37:37;;;;;;;5.25;2.20;;;15.90;99.90;;;;;;6119748;23;20009;-87
2023/07/11 03:40:03;;;;;;;2.33;1.92;;;15.90;99.90;;;;;;6119987;23;20002;-91
2023/07/11 03:42:29;;;;;;;2.85;1.95;;;15.90;99.90;;;;;;6120592;23;20002;-91
2023/07/11 03:44:54;;;;;;;3.17;1.90;;;15.90;99.90;;;;;;6119629;23;20328;-90
2023/07/11 03:47:20;;;;;;;2.35;2.10;;;16.00;99.90;;;;;;6120784;23;19998;-92
2023/07/11 03:49:45;;;;;;;8.25;2.40;;;16.00;99.90;;;;;;6120694;23;20145;-90
2023/07/11 03:52:11;;;;;;;4.57;2.05;;;16.00;99.90;;;;;;6120593;23;20006;-92
2023/07/11 03:54:37;;;;;;;3.70;2.42;;;15.90;99.90;;;;;;6120761;23;20097;-89
2023/07/11 03:57:02;;;;;;;4.63;2.83;;;15.90;99.90;;;;;;6119842;23;20002;-91
2023/07/11 03:59:28;;;;;;;3.30;2.15;;;15.90;99.90;;;;;;6119439;23;20002;-90
2023/07/11 04:01:53;;;;;;;6.25;2.22;;;15.90;99.90;;;;;;6120247;23;20372;-90
2023/07/11 04:04:19;;;;;;;4.55;2.50;;;15.90;99.90;;;;;;6120544;23;20012;-90
2023/07/11 04:06:45;;;;;;;5.43;2.88;;;15.90;99.90;;;;;;6120455;23;20008;-92
2023/07/11 04:09:10;;;;;;;4.90;2.25;;;15.90;99.90;;;;;;6120445;23;20088;-92
2023/07/11 04:11:37;;;;;;;4.65;2.53;;;16.00;99.90;;;;;;6119454;23;19998;-86
2023/07/11 04:14:02;;;;;;;4.68;2.30;;;16.00;99.90;;;;;;6120064;23;20006;-92
2023/07/11 04:16:28;;;;;;;5.20;2.30;;;16.10;99.90;;;;;;6118170;23;20073;-92
2023/07/11 04:18:53;;;;;;;6.28;2.42;;;16.10;99.90;;;;;;6119587;23;20006;-90
2023/07/11 04:21:19;;;;;;;4.35;2.42;;;16.10;99.90;;;;;;6119683;23;20435;-91
2023/07/11 04:23:44;;;;;;;3.65;2.30;;;16.10;99.90;;;;;;6119865;23;20009;-91
2023/07/11 04:26:10;;;;;;;5.07;2.38;;;16.20;99.90;;;;;;6119235;23;20010;-91
2023/07/11 04:28:35;;;;;;;3.95;2.30;;;16.20;99.90;;;;;;6120536;23;19997;-92
2023/07/11 04:31:01;;;;;;;4.50;2.45;;;16.30;99.90;;;;;;6119452;23;20073;-92
2023/07/11 04:33:27;;;;;;;8.95;3.20;;;16.30;99.90;;;;;;6120042;23;20046;-91
2023/07/11 04:35:53;;;;;;;5.75;3.10;;;16.40;99.90;;;;;;6120008;23;20014;-88
2023/07/11 04:38:18;;;;;;;4.35;2.70;;;16.40;99.90;;;;;;6120569;23;20422;-93
2023/07/11 04:40:46;;;;;;;7.68;2.78;;;16.50;99.90;;;;;;6118941;23;20025;-91
2023/07/11 04:43:12;;;;;;;3.63;2.50;;;16.50;99.90;;;;;;6119978;23;20002;-92
2023/07/11 04:45:37;;;;;;;6.32;2.75;;;16.60;99.90;;;;;;6120235;23;20495;-91
2023/07/11 04:48:03;;;;;;;6.93;3.22;;;16.60;99.90;;;;;;6120090;23;20050;-92
2023/07/11 04:50:30;;;;;;;4.20;2.33;;;16.70;99.90;;;;;;6119470;23;20018;-91
2023/07/11 04:52:56;;;;;;;5.60;3.20;;;16.70;99.90;;;;;;6119686;23;20002;-91
2023/07/11 04:55:22;;;;;;;3.25;2.38;;;16.80;99.90;;;;;;6118650;23;20010;-89
2023/07/11 04:57:47;;;;;;;3.92;2.60;;;16.80;99.90;;;;;;6120901;23;20009;-91
2023/07/11 05:00:13;;;;;;;2.95;2.10;;;16.90;99.90;;;;;;6120405;23;20002;-91
2023/07/11 05:02:39;;;;;;;5.57;2.95;;;16.90;99.90;;;;;;6119814;23;20025;-89
2023/07/11 05:05:05;;;;;;;7.53;3.22;;;17.00;99.90;;;;;;6117666;23;20013;-91
2023/07/11 05:07:30;;;;;;;4.30;2.80;;;17.10;99.90;;;;;;6120210;23;20116;-86
2023/07/11 05:09:56;;;;;;;3.97;2.63;;;17.10;99.90;;;;;;6118792;23;20038;-91
2023/07/11 05:12:21;;;;;;;3.53;2.38;;;17.20;99.90;;;;;;6120652;23;20436;-92
2023/07/11 05:14:47;;;;;;;5.80;3.47;;;17.30;99.90;;;;;;6120194;23;20152;-91
2023/07/11 05:17:12;;;;;;;4.55;2.90;;;17.40;99.90;;;;;;6118774;23;20004;-91
2023/07/11 05:19:38;;;;;;;7.72;3.25;;;17.50;99.90;;;;;;6119116;23;20024;-89
2023/07/11 05:22:12;;;;;;;5.43;2.90;;;17.60;99.90;;;;;;6117174;23;20002;-90
2023/07/11 05:24:38;;;;;;;11.30;3.47;;;17.70;99.90;;;;;;6119475;23;19998;-91
2023/07/11 05:27:03;;;;;;;7.35;3.08;;;17.90;99.90;;;;;;6119714;23;20016;-90
2023/07/11 05:29:30;;;;;;;6.53;3.63;;;18.00;99.90;;;;;;6117742;23;20002;-91
2023/07/11 05:31:56;;;;;;;6.63;3.13;;;18.10;99.90;;;;;;6118755;23;20021;-91
2023/07/11 05:34:21;;;;;;;12.20;3.90;;;18.20;99.90;;;;;;6113846;23;20017;-91
2023/07/11 05:36:47;;;;;;;6.32;2.90;;;18.30;99.90;;;;;;6115831;23;20451;-90
2023/07/11 05:39:15;;;;;;;6.60;3.22;;;18.40;99.90;;;;;;6117765;23;20017;-91
2023/07/11 05:41:49;;;;;;;3.58;2.80;;;18.40;99.90;;;;;;6118156;23;20264;-91
2023/07/11 05:44:16;;;;;;;3.58;2.35;;;18.50;99.90;;;;;;6119032;23;20006;-90
2023/07/11 05:46:42;;;;;;;7.75;2.65;;;18.60;99.90;;;;;;6118671;23;20002;-91
2023/07/11 05:49:08;;;;;;;15.18;3.80;;;18.60;99.90;;;;;;6117585;23;20032;-90
2023/07/11 05:51:34;;;;;;;9.52;3.58;;;18.70;99.90;;;;;;6117649;23;20118;-92
2023/07/11 05:54:00;;;;;;;6.50;3.42;;;18.80;99.90;;;;;;6119112;23;20496;-90
2023/07/11 05:56:25;;;;;;;11.18;3.58;;;18.90;99.90;;;;;;6118951;23;20012;-90
2023/07/11 05:58:52;;;;;;;9.50;3.75;;;19.00;99.90;;;;;;6119708;23;20053;-91
2023/07/11 06:01:26;;;;;;;7.10;3.40;;;19.10;99.90;;;;;;6119498;23;20041;-91
2023/07/11 06:04:12;;;;;;;13.40;3.22;;;19.10;99.90;;;;;;6118402;23;20009;-89
2023/07/11 06:06:42;;;;;;;10.60;3.85;;;19.20;99.90;;;;;;6119448;23;20002;-91
2023/07/11 06:09:26;;;;;;;8.30;2.80;;;19.30;99.90;;;;;;6116730;23;20009;-88
2023/07/11 06:11:51;;;;;;;7.90;2.70;;;19.40;99.90;;;;;;6120111;23;20002;-90
2023/07/11 06:14:20;;;;;;;7.80;2.78;;;19.50;99.90;;;;;;6119436;23;20318;-85
2023/07/11 06:16:46;;;;;;;5.10;2.67;;;19.60;99.90;;;;;;6119410;23;20029;-91
2023/07/11 06:19:12;;;;;;;7.93;3.28;;;19.70;99.90;;;;;;6117306;23;20034;-89
2023/07/11 06:21:37;;;;;;;15.45;3.40;;;19.80;99.90;;;;;;6121069;23;19998;-85
2023/07/11 06:24:03;;;;;;;11.57;2.63;;;20.00;99.90;;;;;;6119344;23;20433;-90
2023/07/11 06:26:28;;;;;;;6.40;2.55;;;20.10;99.90;;;;;;6119449;23;19994;-92
2023/07/11 06:28:56;;;;;;;8.45;2.35;;;20.20;99.90;;;;;;6120967;23;20002;-88
2023/07/11 06:31:22;;;;;;;8.25;3.47;;;20.30;99.90;;;;;;6121112;23;19998;-89
2023/07/11 06:33:47;;;;;;;6.75;2.83;;;20.40;99.90;;;;;;6121052;23;20009;-90
2023/07/11 06:36:13;;;;;;;8.00;2.83;;;20.40;99.90;;;;;;6121197;23;20033;-91
2023/07/11 06:38:38;;;;;;;5.82;2.40;;;20.50;99.90;;;;;;6120335;23;20006;-90
2023/07/11 06:41:04;;;;;;;8.52;3.53;;;20.60;99.90;;;;;;6121397;23;20458;-91
2023/07/11 06:43:29;;;;;;;9.38;2.92;;;20.70;99.90;;;;;;6121003;23;20006;-91
2023/07/11 06:45:57;;;;;;;8.18;2.78;;;20.80;99.90;;;;;;6120582;23;19998;-92
2023/07/11 06:48:25;;;;;;;13.38;3.78;;;20.90;99.90;;;;;;6120958;23;20044;-89
2023/07/11 06:50:53;;;;;;;6.57;2.47;;;21.00;99.90;;;;;;6120188;23;20002;-95
2023/07/11 06:53:20;;;;;;;8.85;3.13;;;21.10;99.90;;;;;;6121352;23;19998;-91
2023/07/11 06:55:47;;;;;;;6.10;2.78;;;21.10;99.90;;;;;;6119970;23;20018;-93
2023/07/11 06:58:13;;;;;;;6.13;2.40;;;21.20;99.90;;;;;;6120083;23;20439;-90
2023/07/11 07:00:38;;;;;;;13.48;2.97;;;21.30;99.90;;;;;;6119337;23;20085;-91
2023/07/11 07:03:04;;;;;;;9.27;2.78;;;21.40;99.90;;;;;;6120541;23;20029;-91
2023/07/11 07:05:30;;;;;;;5.85;2.17;;;21.50;99.90;;;;;;6120729;23;20057;-91
2023/07/11 07:07:55;;;;;;;11.48;2.70;;;21.60;99.90;;;;;;6119692;23;20455;-93
2023/07/11 07:10:21;;;;;;;5.57;2.65;;;21.60;99.90;;;;;;6121438;23;20002;-89
2023/07/11 07:12:46;;;;;;;6.75;2.63;;;21.60;99.90;;;;;;6121255;23;20012;-92
2023/07/11 07:15:13;;;;;;;8.55;2.60;;;21.70;99.90;;;;;;6120278;23;20523;-87
2023/07/11 07:17:38;;;;;;;5.60;2.20;;;21.80;99.90;;;;;;6121360;23;20009;-92
2023/07/11 07:20:05;;;;;;;8.10;2.90;;;21.80;99.90;;;;;;6120734;23;20002;-90
2023/07/11 07:22:30;;;;;;;11.98;2.90;;;21.90;99.90;;;;;;6119252;23;20013;-86
2023/07/11 07:24:56;;;;;;;5.38;2.45;;;21.90;99.90;;;;;;6120624;23;19994;-92
2023/07/11 07:27:24;;;;;;;8.55;2.80;;;21.90;99.90;;;;;;6120516;23;20009;-86
2023/07/11 07:29:51;;;;;;;9.35;2.30;;;22.00;99.90;;;;;;6121273;23;20484;-92
2023/07/11 07:32:17;;;;;;;7.95;2.80;;;22.10;99.90;;;;;;6121272;23;20030;-92
2023/07/11 07:34:42;;;;;;;6.13;2.92;;;22.20;99.90;;;;;;6121113;23;20018;-93
2023/07/11 07:37:08;;;;;;;5.15;2.85;;;22.20;99.90;;;;;;6120632;23;20068;-86
2023/07/11 07:39:33;;;;;;;6.75;2.75;;;22.20;99.90;;;;;;6120712;23;20006;-92
2023/07/11 07:41:59;;;;;;;6.25;3.22;;;22.30;99.90;;;;;;6115633;23;20059;-90
2023/07/11 07:44:24;;;;;;;5.70;2.90;;;22.30;99.90;;;;;;6120442;23;20005;-92
2023/07/11 07:46:50;;;;;;;8.63;4.00;;;22.30;99.90;;;;;;6121097;23;20337;-92
2023/07/11 07:49:15;;;;;;;11.40;4.47;;;22.40;99.90;;;;;;6119842;23;20508;-86
2023/07/11 07:51:41;;;;;;;8.73;4.32;;;22.40;99.90;;;;;;6119909;23;20002;-91
2023/07/11 07:54:08;;;;;;;6.78;4.18;;;22.40;99.90;;;;;;6120685;23;20006;-89
2023/07/11 07:56:35;;;;;;;7.75;3.65;;;22.50;99.90;;;;;;6120102;23;20096;-91
2023/07/11 07:59:01;;;;;;;9.80;3.53;;;22.50;99.90;;;;;;6120028;23;20080;-91
2023/07/11 08:01:26;;;;;;;4.93;2.83;;;22.60;99.90;;;;;;6120851;23;20013;-90
2023/07/11 08:03:52;;;;;;;6.43;3.05;;;22.70;99.90;;;;;;6120111;23;20010;-89
2023/07/11 08:06:19;;;;;;;7.40;3.50;;;22.80;99.90;;;;;;6118592;23;20006;-89
2023/07/11 08:08:46;;;;;;;5.28;3.17;;;22.90;99.90;;;;;;6118606;23;20034;-91
2023/07/11 08:11:12;;;;;;;6.30;3.25;;;23.00;99.90;;;;;;6119972;23;20041;-91
2023/07/11 08:13:38;;;;;;;7.45;2.90;;;23.00;99.90;;;;;;6120553;23;20002;-88
2023/07/11 08:16:04;;;;;;;6.90;3.03;;;23.10;99.90;;;;;;6120167;23;20013;-90
2023/07/11 08:18:29;;;;;;;5.18;3.05;;;23.20;99.90;;;;;;6118503;23;20029;-92
2023/07/11 08:20:55;;;;;;;8.93;3.22;;;23.20;99.90;;;;;;6117451;23;20005;-92
2023/07/11 08:23:21;;;;;;;10.40;3.53;;;23.20;99.90;;;;;;6117482;23;20002;-92
2023/07/11 08:25:53;;;;;;;6.95;3.10;;;23.30;99.90;;;;;;6120557;23;20397;-91
2023/07/11 08:28:19;;;;;;;6.15;3.50;;;23.40;99.90;;;;;;6119338;23;20000;-92
2023/07/11 08:30:44;;;;;;;7.78;2.90;;;23.40;99.90;;;;;;6121097;23;20077;-93
2023/07/11 08:33:10;;;;;;;7.05;3.20;;;23.40;99.90;;;;;;6119104;23;20061;-91
2023/07/11 08:35:35;;;;;;;4.70;3.10;;;23.50;99.90;;;;;;6120067;23;20324;-91
2023/07/11 08:38:03;;;;;;;5.10;3.10;;;23.60;99.90;;;;;;6120760;23;19997;-93
2023/07/11 08:40:33;;;;;;;7.00;3.70;;;23.70;99.90;;;;;;6120473;23;20364;-86
2023/07/11 08:43:04;;;;;;;7.72;3.42;;;23.80;99.90;;;;;;6119283;23;20021;-89
2023/07/11 08:45:42;;;;;;;12.25;3.47;;;23.90;99.90;;;;;;6119685;23;19994;-92
2023/07/11 08:48:24;;;;;;;11.68;3.75;;;23.90;99.90;;;;;;6119500;23;20073;-92
2023/07/11 08:51:16;;;;;;;5.35;3.20;;;23.90;99.90;;;;;;6120483;23;20078;-89
2023/07/11 08:53:48;;;;;;;4.57;2.90;;;23.90;99.90;;;;;;6119752;23;20021;-90
2023/07/11 08:56:17;;;;;;;7.03;3.40;;;24.00;99.90;;;;;;6120317;23;20017;-89
2023/07/11 08:58:45;;;;;;;7.80;3.50;;;24.00;99.90;;;;;;6119179;23;20069;-93
2023/07/11 09:01:29;;;;;;;9.20;3.00;;;24.10;99.90;;;;;;6118396;23;20036;-87
2023/07/11 09:03:56;;;;;;;4.57;3.40;;;24.20;99.90;;;;;;6118984;23;19994;-92
2023/07/11 09:06:30;;;;;;;6.95;3.40;;;24.10;99.90;;;;;;6116565;23;20028;-88
2023/07/11 09:08:56;;;;;;;6.20;3.47;;;24.20;99.90;;;;;;6117420;23;19998;-92
2023/07/11 09:11:24;;;;;;;5.53;3.58;;;24.30;99.90;;;;;;6118331;23;19994;-88
2023/07/11 09:13:54;;;;;;;8.35;3.28;;;24.40;99.90;;;;;;6119561;23;20005;-94
2023/07/11 09:16:51;;;;;;;9.82;3.67;;;24.40;99.90;;;;;;6120503;23;20056;-93
2023/07/11 09:19:39;;;;;;;5.38;3.10;;;24.50;99.90;;;;;;6120187;23;20001;-91
2023/07/11 09:22:30;;;;;;;6.32;3.63;;;24.50;99.90;;;;;;6119640;23;20095;-91
2023/07/11 09:25:21;;;;;;;7.47;3.60;;;24.50;99.90;;;;;;6119396;23;20024;-92
2023/07/11 09:27:54;;;;;;;7.25;3.55;;;24.60;99.90;;;;;;6119809;23;20048;-90
2023/07/11 09:30:31;;;;;;;4.88;3.38;;;24.70;99.90;;;;;;6118741;23;20045;-91
2023/07/11 09:33:26;;;;;;;5.20;2.80;;;24.80;99.90;;;;;;6119192;23;19997;-89
2023/07/11 09:35:52;;;;;;;4.60;3.55;;;24.90;99.90;;;;;;6105987;23;20006;-87
2023/07/11 09:38:21;;;;;;;8.52;3.65;;;24.90;99.90;;;;;;6119334;23;20009;-90
2023/07/11 09:40:57;;;;;;;6.10;3.00;;;25.00;99.90;;;;;;6117569;23;20058;-85
2023/07/11 09:43:22;;;;;;;5.55;3.42;;;25.00;99.90;;;;;;6118860;23;20874;-92
2023/07/11 09:45:48;;;;;;;9.45;3.92;;;25.10;99.90;;;;;;6119091;23;20010;-89
2023/07/11 09:48:36;;;;;;;6.70;3.70;;;25.20;99.90;;;;;;6117342;23;20072;-89
2023/07/11 09:51:19;;;;;;;4.68;3.78;;;25.30;99.90;;;;;;6119037;23;20002;-88
2023/07/11 09:53:46;;;;;;;8.68;4.13;;;25.30;99.90;;;;;;6119726;23;20028;-93
2023/07/11 09:56:17;;;;;;;7.10;3.50;;;25.30;99.90;;;;;;6118864;23;20413;-92
2023/07/11 09:58:53;;;;;;;6.10;3.75;;;25.40;99.90;;;;;;6118795;23;19994;-90
2023/07/11 10:01:23;;;;;;;4.40;3.85;;;25.40;99.90;;;;;;6117758;23;19998;-90
2023/07/11 10:03:53;;;;;;;6.13;4.45;;;25.40;99.90;;;;;;6118913;23;20428;-90
2023/07/11 10:06:39;;;;;;;7.88;4.35;;;25.40;99.90;;;;;;6116373;23;20002;-93
2023/07/11 10:09:25;;;;;;;8.85;4.30;;;25.50;99.90;;;;;;6119533;23;20001;-90
2023/07/11 10:12:12;;;;;;;7.22;5.03;;;25.50;99.90;;;;;;6117132;23;19999;-90
2023/07/11 10:14:43;;;;;;;7.57;5.22;;;25.70;99.90;;;;;;6116534;23;20041;-91
2023/07/11 10:17:22;;;;;;;9.00;5.38;;;25.80;99.90;;;;;;6119091;23;20002;-88
2023/07/11 10:19:56;;;;;;;5.97;4.45;;;25.90;99.90;;;;;;6117353;23;20054;-90
2023/07/11 10:22:26;;;;;;;7.63;4.78;;;25.90;99.90;;;;;;6119979;23;20022;-89
2023/07/11 10:25:17;;;;;;;7.70;4.55;;;25.90;99.90;;;;;;6119242;23;20034;-88
2023/07/11 10:28:10;;;;;;;9.75;4.40;;;25.90;99.90;;;;;;6115040;23;20005;-86
2023/07/11 10:30:38;;;;;;;6.35;4.20;;;26.00;99.90;;;;;;6096320;23;20033;-90
2023/07/11 10:33:13;;;;;;;9.85;5.25;;;26.00;99.90;;;;;;6117679;23;20065;-90
2023/07/11 10:35:39;;;;;;;;;;;26.00;99.90;;;;;;6115931;23;20021;-88
2023/07/11 10:38:32;;;;;;;12.30;5.00;;;26.10;99.90;;;;;;6119700;23;19901;-89
2023/07/11 10:41:00;;;;;;;8.32;4.78;;;26.20;99.90;;;;;;6117481;23;20049;-91
2023/07/11 10:43:31;;;;;;;7.53;4.63;;;26.30;99.90;;;;;;6118221;23;20002;-92
2023/07/11 10:46:18;;;;;;;10.63;5.55;;;26.40;99.90;;;;;;6118829;23;20132;-92
2023/07/11 10:48:50;;;;;;;8.25;4.47;;;26.50;99.90;;;;;;6118649;23;20032;-92
2023/07/11 10:51:36;;;;;;;7.22;5.05;;;26.50;99.90;;;;;;6118178;23;20384;-91
2023/07/11 10:54:22;;;;;;;6.93;4.68;;;26.70;99.90;;;;;;6118681;23;20029;-87
2023/07/11 10:56:54;;;;;;;7.53;5.15;;;26.80;99.90;;;;;;6116669;23;20074;-89
2023/07/11 10:59:23;;;;;;;15.43;5.28;;;26.80;99.90;;;;;;6119671;23;20006;-90
2023/07/11 11:01:55;;;;;;;14.45;4.97;;;26.80;99.90;;;;;;6120397;23;20037;-91
2023/07/11 11:04:47;;;;;;;9.02;5.97;;;26.80;99.90;;;;;;6119577;23;20017;-88
2023/07/11 11:07:15;;;;;;;9.85;6.25;;;26.90;99.90;;;;;;6118530;23;20184;-88
2023/07/11 11:09:58;;;;;;;17.23;5.65;;;26.90;99.90;;;;;;6120031;23;20005;-91
2023/07/11 11:12:38;;;;;;;11.15;5.90;;;26.90;99.90;;;;;;6118033;23;20432;-90
2023/07/11 11:15:20;;;;;;;12.50;6.53;;;27.00;99.90;;;;;;6120094;23;20164;-89
2023/07/11 11:18:19;;;;;;;14.15;6.22;;;26.90;99.90;;;;;;6119984;23;20010;-89
2023/07/11 11:21:12;;;;;;;8.18;6.03;;;26.90;98.90;;;;;;6119378;23;20002;-89
2023/07/11 11:23:44;;;;;;;8.40;5.88;;;26.80;99.90;;;;;;6103184;23;20332;-87
2023/07/11 11:26:34;;;;;;;12.00;6.45;;;27.00;99.90;;;;;;6118446;23;20033;-87
2023/07/11 11:29:23;;;;;;;8.23;5.45;;;27.00;99.90;;;;;;6116342;23;20306;-89
2023/07/11 11:32:21;;;;;;;9.88;6.00;;;27.10;99.90;;;;;;6120550;23;20039;-88
2023/07/11 11:35:12;;;;;;;14.20;6.85;;;27.10;99.90;;;;;;6118619;23;20017;-88
2023/07/11 11:38:04;;;;;;;15.80;7.38;;;27.20;99.90;;;;;;6120003;23;19998;-85
2023/07/11 11:40:33;;;;;;;13.23;6.55;;;27.30;99.90;;;;;;6116959;23;20344;-87
2023/07/11 11:43:05;;;;;;;14.95;7.25;;;27.40;99.90;;;;;;6118866;23;20062;-89
2023/07/11 11:45:32;;;;;;;12.07;8.20;;;27.60;99.90;;;;;;6118335;23;20087;-91
2023/07/11 11:48:02;;;;;;;11.35;7.82;;;27.80;96.50;;;;;;6116601;23;20009;-89
2023/07/11 11:50:30;;;;;;;11.13;7.57;;;27.90;96.20;;;;;;6119228;23;20013;-88
2023/07/11 11:53:33;;;;;;;13.32;8.35;;;28.00;97.50;;;;;;6117996;23;20002;-88
2023/07/11 11:56:01;;;;;;;11.82;8.60;;;27.90;93.30;;;;;;6117373;23;20042;-88
2023/07/11 11:58:28;;;;;;;12.35;9.23;;;27.90;94.00;;;;;;6118769;23;20295;-88
2023/07/11 12:00:56;;;;;;;12.45;7.60;;;27.80;93.30;;;;;;6119549;23;20076;-89
2023/07/11 12:03:30;;;;;;;11.45;8.27;;;27.70;95.10;;;;;;6115802;23;20013;-88
2023/07/11 12:05:59;;;;;;;13.48;9.30;;;27.60;96.10;;;;;;6119715;23;20029;-87
2023/07/11 12:08:28;;;;;;;14.43;8.85;;;27.60;95.30;;;;;;6117073;23;20002;-87
2023/07/11 12:11:08;;;;;;;11.38;7.90;;;27.70;93.30;;;;;;6117370;23;20021;-89
2023/07/11 12:13:36;;;;;;;12.68;8.70;;;27.80;94.00;;;;;;6117909;23;20002;-89
2023/07/11 12:16:28;;;;;;;11.90;7.60;;;27.90;93.10;;;;;;6117909;23;20045;-89
2023/07/11 12:18:59;;;;;;;13.13;7.70;;;27.90;94.50;;;;;;6116422;23;20480;-87
2023/07/11 12:21:39;;;;;;;10.68;7.70;;;27.90;96.30;;;;;;6117853;23;20313;-86
2023/07/11 12:24:21;;;;;;;11.45;8.15;;;27.90;95.60;;;;;;6117993;23;20013;-89
2023/07/11 12:26:46;;;;;;;15.15;8.80;;;27.90;99.60;;;;;;6117330;23;20002;-88
2023/07/11 12:29:34;;;;;;;14.82;7.70;;;28.00;99.90;;;;;;6116891;23;20002;-88
2023/07/11 12:32:49;;;;;;;14.85;9.25;;;28.00;94.60;;;;;;6114791;23;20009;-88
2023/07/11 12:35:18;;;;;;;13.10;8.38;;;28.00;96.30;;;;;;6014121;23;20447;-88
2023/07/11 12:38:02;;;;;;;15.25;8.45;;;28.10;96.20;;;;;;6118682;23;20009;-86
2023/07/11 12:40:43;;;;;;;19.42;11.63;;;28.20;98.80;;;;;;6118470;23;20069;-88
2023/07/11 12:43:24;;;;;;;19.23;12.27;;;28.30;91.00;;;;;;6117496;23;20002;-87
2023/07/11 12:45:59;;;;;;;16.58;11.55;;;28.40;91.40;;;;;;6117163;23;20507;-87
2023/07/11 12:48:26;;;;;;;;;;;28.70;89.30;;;;;;6117857;23;20100;-87
2023/07/11 12:50:58;;;;;;;16.95;11.95;;;28.70;84.80;;;;;;6120075;23;19901;-85
2023/07/11 12:53:24;;;;;;;17.95;11.85;;;28.70;79.80;;;;;;6118033;23;20069;-87
2023/07/11 12:55:52;;;;;;;26.48;13.82;;;28.90;79.10;;;;;;6119232;23;20018;-88
2023/07/11 12:58:26;;;;;;;17.05;12.18;;;29.00;83.50;;;;;;6117703;23;20445;-87
2023/07/11 13:00:53;;;;;;;17.00;11.82;;;29.10;79.10;;;;;;6118688;23;20013;-88